createdAt,value
2019-02-19T00:02:17.458Z,8.00
2019-02-19T00:04:46.154Z,8.10
2019-02-19T00:07:15.402Z,8.10
2019-02-19T00:09:44.138Z,8.20
2019-02-19T00:12:12.928Z,8.20
2019-02-19T00:14:41.690Z,8.20
2019-02-19T00:17:10.517Z,8.20
2019-02-19T00:19:39.366Z,8.20
2019-02-19T00:22:08.147Z,8.10
2019-02-19T00:24:37.231Z,8.10
2019-02-19T00:27:05.885Z,8.10
2019-02-19T00:29:34.627Z,8.00
2019-02-19T00:32:03.548Z,8.00
2019-02-19T00:34:32.407Z,8.00
2019-02-19T00:37:01.072Z,8.00
2019-02-19T00:39:29.906Z,7.80
2019-02-19T00:41:58.738Z,7.70
2019-02-19T00:44:27.442Z,7.70
2019-02-19T00:46:56.073Z,7.70
2019-02-19T00:49:24.795Z,7.70
2019-02-19T00:51:54.675Z,7.90
2019-02-19T00:54:23.515Z,7.90
2019-02-19T00:56:52.293Z,7.90
2019-02-19T00:59:21.068Z,7.90
2019-02-19T01:01:49.860Z,7.90
2019-02-19T01:04:18.605Z,7.90
2019-02-19T01:06:47.379Z,7.80
2019-02-19T01:09:16.204Z,7.80
2019-02-19T01:11:44.918Z,7.80
2019-02-19T01:14:13.664Z,7.80
2019-02-19T01:16:42.459Z,7.90
2019-02-19T01:19:11.168Z,8.10
2019-02-19T01:21:39.916Z,8.20
2019-02-19T01:24:08.700Z,8.30
2019-02-19T01:26:37.498Z,8.30
2019-02-19T01:29:07.396Z,8.40
2019-02-19T01:31:36.256Z,8.50
2019-02-19T01:34:05.004Z,8.60
2019-02-19T01:36:33.740Z,8.50
2019-02-19T01:39:02.687Z,8.50
2019-02-19T01:41:31.502Z,8.40
2019-02-19T01:44:00.216Z,8.30
2019-02-19T01:46:29.059Z,8.20
2019-02-19T01:48:57.772Z,8.20
2019-02-19T01:51:26.500Z,8.10
2019-02-19T01:53:58.008Z,8.00
2019-02-19T01:56:26.663Z,8.00
2019-02-19T01:58:55.423Z,7.90
2019-02-19T02:01:24.275Z,7.90
2019-02-19T02:03:53.058Z,7.90
2019-02-19T02:06:21.811Z,7.90
2019-02-19T02:08:50.493Z,7.90
2019-02-19T02:11:19.158Z,7.80
2019-02-19T02:13:47.922Z,7.70
2019-02-19T02:16:16.655Z,7.60
2019-02-19T02:18:45.295Z,7.50
2019-02-19T02:21:14.020Z,7.40
2019-02-19T02:23:42.751Z,7.40
2019-02-19T02:26:11.514Z,7.40
2019-02-19T02:28:40.309Z,7.50
2019-02-19T02:31:09.754Z,7.50
2019-02-19T02:33:38.440Z,7.60
2019-02-19T02:36:07.200Z,7.70
2019-02-19T02:38:35.829Z,7.80
2019-02-19T02:41:04.433Z,7.90
2019-02-19T02:43:33.116Z,8.00
2019-02-19T02:46:01.890Z,8.10
2019-02-19T02:48:30.569Z,8.20
2019-02-19T02:50:59.248Z,8.20
2019-02-19T02:53:27.968Z,8.30
2019-02-19T02:55:56.649Z,8.30
2019-02-19T02:58:25.410Z,8.20
2019-02-19T03:00:54.228Z,8.30
2019-02-19T03:03:22.956Z,8.30
2019-02-19T03:05:54.553Z,8.30
2019-02-19T03:08:23.360Z,8.40
2019-02-19T03:10:52.009Z,8.30
2019-02-19T03:13:20.793Z,8.30
2019-02-19T03:15:49.520Z,8.40
2019-02-19T03:18:18.227Z,8.40
2019-02-19T03:20:46.902Z,8.40
2019-02-19T03:23:15.530Z,8.40
2019-02-19T03:25:44.175Z,8.40
2019-02-19T03:28:12.889Z,8.40
2019-02-19T03:30:41.866Z,8.50
2019-02-19T03:33:10.592Z,8.40
2019-02-19T03:35:39.379Z,8.40
2019-02-19T03:38:08.113Z,8.40
2019-02-19T03:40:37.235Z,8.30
2019-02-19T03:43:05.936Z,8.30
2019-02-19T03:45:34.718Z,8.30
2019-02-19T03:48:03.465Z,8.30
2019-02-19T03:50:32.166Z,8.20
2019-02-19T03:53:00.981Z,8.20
2019-02-19T03:55:29.848Z,8.20
2019-02-19T03:57:58.591Z,8.20
2019-02-19T04:00:27.395Z,8.20
2019-02-19T04:02:56.122Z,8.20
2019-02-19T04:05:24.869Z,8.10
2019-02-19T04:07:53.598Z,8.10
2019-02-19T04:10:22.363Z,8.10
2019-02-19T04:12:51.059Z,8.10
2019-02-19T04:15:19.859Z,8.00
2019-02-19T04:17:48.607Z,8.00
2019-02-19T04:20:17.390Z,7.90
2019-02-19T04:22:46.132Z,7.90
2019-02-19T04:25:14.893Z,7.80
2019-02-19T04:27:43.703Z,7.70
2019-02-19T04:30:12.485Z,7.70
2019-02-19T04:32:41.253Z,7.60
2019-02-19T04:35:10.273Z,7.60
2019-02-19T04:37:39.147Z,7.60
2019-02-19T04:40:08.895Z,7.50
2019-02-19T04:42:37.643Z,7.50
2019-02-19T04:45:06.492Z,7.40
2019-02-19T04:47:35.126Z,7.40
2019-02-19T04:50:04.954Z,7.30
2019-02-19T04:52:33.696Z,7.30
2019-02-19T04:55:02.436Z,7.30
2019-02-19T04:57:31.156Z,7.20
2019-02-19T04:59:59.918Z,7.20
2019-02-19T05:02:28.671Z,7.10
2019-02-19T05:04:57.392Z,7.10
2019-02-19T05:07:26.125Z,7.10
2019-02-19T05:09:55.315Z,7.00
2019-02-19T05:12:24.127Z,7.00
2019-02-19T05:14:52.867Z,7.00
2019-02-19T05:17:21.682Z,7.10
2019-02-19T05:19:50.597Z,7.10
2019-02-19T05:22:19.462Z,7.10
2019-02-19T05:24:48.299Z,7.10
2019-02-19T05:27:17.275Z,7.10
2019-02-19T05:29:45.992Z,7.00
2019-02-19T05:32:14.771Z,7.00
2019-02-19T05:34:43.562Z,7.00
2019-02-19T05:37:12.348Z,7.00
2019-02-19T05:39:41.123Z,7.10
2019-02-19T05:42:09.793Z,7.10
2019-02-19T05:44:38.522Z,7.10
2019-02-19T05:47:07.344Z,7.10
2019-02-19T05:49:36.072Z,7.10
2019-02-19T05:52:04.906Z,7.10
2019-02-19T05:54:33.639Z,7.10
2019-02-19T05:57:02.285Z,7.10
2019-02-19T05:59:32.524Z,7.10
2019-02-19T06:02:01.541Z,7.10
2019-02-19T06:04:30.314Z,7.20
2019-02-19T06:06:59.172Z,7.20
2019-02-19T06:09:27.859Z,7.20
2019-02-19T06:11:56.531Z,7.20
2019-02-19T06:14:25.270Z,7.20
2019-02-19T06:16:58.511Z,7.20
2019-02-19T06:19:24.483Z,7.20
2019-02-19T06:21:53.214Z,7.20
2019-02-19T06:24:22.005Z,7.20
2019-02-19T06:26:50.738Z,7.20
2019-02-19T06:29:19.444Z,7.30
2019-02-19T06:31:48.278Z,7.30
2019-02-19T06:34:17.032Z,7.30
2019-02-19T06:36:45.880Z,7.30
2019-02-19T06:39:14.727Z,7.30
2019-02-19T06:41:43.496Z,7.30
2019-02-19T06:44:12.283Z,7.30
2019-02-19T06:46:41.020Z,7.30
2019-02-19T06:49:09.805Z,7.20
2019-02-19T06:51:38.674Z,7.20
2019-02-19T06:54:07.342Z,7.20
2019-02-19T06:56:36.094Z,7.10
2019-02-19T06:59:05.616Z,7.20
2019-02-19T07:01:36.005Z,7.10
2019-02-19T07:04:06.443Z,7.10
2019-02-19T07:06:35.217Z,7.10
2019-02-19T07:09:04.622Z,7.10
2019-02-19T07:11:33.388Z,7.10
2019-02-19T07:14:02.062Z,7.10
2019-02-19T07:16:30.927Z,7.10
2019-02-19T07:18:59.718Z,7.20
2019-02-19T07:21:28.527Z,7.20
2019-02-19T07:24:04.236Z,7.30
2019-02-19T07:26:27.825Z,7.30
2019-02-19T07:28:56.483Z,7.30
2019-02-19T07:31:25.469Z,7.30
2019-02-19T07:33:54.143Z,7.40
2019-02-19T07:36:22.897Z,7.50
2019-02-19T07:38:52.517Z,7.50
2019-02-19T07:41:21.348Z,7.60
2019-02-19T07:43:50.020Z,7.60
2019-02-19T07:46:18.794Z,7.60
2019-02-19T07:48:47.577Z,7.60
2019-02-19T07:51:16.253Z,7.60
2019-02-19T07:53:45.064Z,7.70
2019-02-19T07:56:15.299Z,7.70
2019-02-19T07:58:43.974Z,7.70
2019-02-19T08:01:12.858Z,7.70
2019-02-19T08:03:41.581Z,7.70
2019-02-19T08:06:11.691Z,7.70
2019-02-19T08:08:41.138Z,7.70
2019-02-19T08:11:12.932Z,7.70
2019-02-19T08:13:41.858Z,7.70
2019-02-19T08:16:12.011Z,7.70
2019-02-19T08:18:40.747Z,7.70
2019-02-19T08:21:10.202Z,7.70
2019-02-19T08:23:38.950Z,7.70
2019-02-19T08:26:07.806Z,7.80
2019-02-19T08:28:36.582Z,7.90
2019-02-19T08:31:05.718Z,7.90
2019-02-19T08:33:34.441Z,7.90
2019-02-19T08:36:03.211Z,8.00
2019-02-19T08:38:32.170Z,8.00
2019-02-19T08:41:01.072Z,8.00
2019-02-19T08:43:29.857Z,8.00
2019-02-19T08:45:58.639Z,8.00
2019-02-19T08:48:27.424Z,7.90
2019-02-19T08:50:56.507Z,8.00
2019-02-19T08:53:25.409Z,7.90
2019-02-19T08:55:54.508Z,8.00
2019-02-19T08:58:23.367Z,8.00
2019-02-19T09:00:52.265Z,8.00
2019-02-19T09:03:21.985Z,8.10
2019-02-19T09:05:50.891Z,8.20
2019-02-19T09:08:19.679Z,8.50
2019-02-19T09:10:48.735Z,8.70
2019-02-19T09:13:17.881Z,9.10
2019-02-19T09:15:46.673Z,9.60
2019-02-19T09:18:15.452Z,9.60
2019-02-19T09:20:44.315Z,9.40
2019-02-19T09:23:13.114Z,9.50
2019-02-19T09:25:41.848Z,10.50
2019-02-19T09:28:10.529Z,11.10
2019-02-19T09:30:39.438Z,11.10
2019-02-19T09:33:08.196Z,10.90
2019-02-19T09:35:36.978Z,10.60
2019-02-19T09:38:05.892Z,10.50
2019-02-19T09:40:34.656Z,10.30
2019-02-19T09:43:03.368Z,10.30
2019-02-19T09:45:32.185Z,10.40
2019-02-19T09:48:01.636Z,10.30
2019-02-19T09:50:30.599Z,10.30
2019-02-19T09:53:00.235Z,10.10
2019-02-19T09:55:29.142Z,10.00
2019-02-19T09:57:57.835Z,9.70
2019-02-19T10:00:26.695Z,9.80
2019-02-19T10:02:56.790Z,9.80
2019-02-19T10:05:25.570Z,9.70
2019-02-19T10:07:55.863Z,10.10
2019-02-19T10:10:24.775Z,11.10
2019-02-19T10:12:53.500Z,10.90
2019-02-19T10:15:22.691Z,10.30
2019-02-19T10:17:51.495Z,10.00
2019-02-19T10:20:20.346Z,9.90
2019-02-19T10:22:49.029Z,9.90
2019-02-19T10:25:17.843Z,9.90
2019-02-19T10:27:46.556Z,9.70
2019-02-19T10:30:18.945Z,9.50
2019-02-19T10:32:47.823Z,9.60
2019-02-19T10:35:16.616Z,9.70
2019-02-19T10:37:45.435Z,9.90
2019-02-19T10:40:16.674Z,10.30
2019-02-19T10:42:45.398Z,10.80
2019-02-19T10:45:16.918Z,10.60
2019-02-19T10:47:45.672Z,10.50
2019-02-19T10:50:14.536Z,10.30
2019-02-19T10:52:43.318Z,10.20
2019-02-19T10:55:12.165Z,10.50
2019-02-19T10:57:40.984Z,10.60
2019-02-19T11:00:13.178Z,10.70
2019-02-19T11:02:41.994Z,11.10
2019-02-19T11:05:11.248Z,11.30
2019-02-19T11:07:39.990Z,11.60
2019-02-19T11:10:10.825Z,11.90
2019-02-19T11:12:40.403Z,12.00
2019-02-19T11:15:11.115Z,11.60
2019-02-19T11:17:40.034Z,11.40
2019-02-19T11:20:11.649Z,11.20
2019-02-19T11:22:40.449Z,11.00
2019-02-19T11:25:11.632Z,11.00
2019-02-19T11:27:40.705Z,10.80
2019-02-19T11:30:12.928Z,10.90
2019-02-19T11:32:41.751Z,11.00
2019-02-19T11:35:10.814Z,11.30
2019-02-19T11:37:39.600Z,11.60
2019-02-19T11:40:10.957Z,11.90
2019-02-19T11:42:39.833Z,12.00
2019-02-19T11:45:11.407Z,11.90
2019-02-19T11:47:40.332Z,12.00
2019-02-19T11:50:11.059Z,12.00
2019-02-19T11:52:39.868Z,11.80
2019-02-19T11:55:11.679Z,11.60
2019-02-19T11:57:40.510Z,11.40
2019-02-19T12:00:13.901Z,11.30
2019-02-19T12:02:42.646Z,11.30
2019-02-19T12:05:11.578Z,11.20
2019-02-19T12:07:40.415Z,11.00
2019-02-19T12:10:11.784Z,11.00
2019-02-19T12:12:40.602Z,11.10
2019-02-19T12:15:11.541Z,11.10
2019-02-19T12:17:40.740Z,11.00
2019-02-19T12:20:11.890Z,10.90
2019-02-19T12:22:40.639Z,10.90
2019-02-19T12:25:10.577Z,10.90
2019-02-19T12:27:39.625Z,10.90
2019-02-19T12:30:11.931Z,11.20
2019-02-19T12:32:43.633Z,11.20
2019-02-19T12:35:12.736Z,11.20
2019-02-19T12:37:41.687Z,11.20
2019-02-19T12:40:12.328Z,11.20
2019-02-19T12:42:41.218Z,11.20
2019-02-19T12:45:11.935Z,11.20
2019-02-19T12:47:40.701Z,11.00
2019-02-19T12:50:11.883Z,10.90
2019-02-19T12:52:40.667Z,11.00
2019-02-19T12:55:10.535Z,11.10
2019-02-19T12:57:43.428Z,11.20
2019-02-19T13:00:16.687Z,11.20
2019-02-19T13:03:07.087Z,11.20
2019-02-19T13:05:38.225Z,11.00
2019-02-19T13:08:08.215Z,11.00
2019-02-19T13:10:40.200Z,10.80
2019-02-19T13:13:09.244Z,10.80
2019-02-19T13:15:38.316Z,11.00
2019-02-19T13:18:08.807Z,11.10
2019-02-19T13:20:41.736Z,11.10
2019-02-19T13:23:13.463Z,11.10
2019-02-19T13:25:42.307Z,11.10
2019-02-19T13:28:11.134Z,11.10
2019-02-19T13:30:44.607Z,11.00
2019-02-19T13:33:13.353Z,10.90
2019-02-19T13:35:43.414Z,11.00
2019-02-19T13:38:12.159Z,11.10
2019-02-19T13:40:40.922Z,11.30
2019-02-19T13:43:09.696Z,11.40
2019-02-19T13:45:38.555Z,11.20
2019-02-19T13:48:07.334Z,11.10
2019-02-19T13:50:36.172Z,11.10
2019-02-19T13:53:06.540Z,11.00
2019-02-19T13:55:43.542Z,11.00
2019-02-19T13:58:12.496Z,11.00
2019-02-19T14:00:42.939Z,10.80
2019-02-19T14:03:11.964Z,10.80
2019-02-19T14:05:40.899Z,10.80
2019-02-19T14:08:14.486Z,10.80
2019-02-19T14:10:41.272Z,10.90
2019-02-19T14:13:10.644Z,11.90
2019-02-19T14:15:40.604Z,12.10
2019-02-19T14:18:11.072Z,11.70
2019-02-19T14:20:41.616Z,11.60
2019-02-19T14:23:12.699Z,12.00
2019-02-19T14:25:43.125Z,12.10
2019-02-19T14:28:11.915Z,12.20
2019-02-19T14:30:43.062Z,12.00
2019-02-19T14:33:13.511Z,11.60
2019-02-19T14:35:43.921Z,11.20
2019-02-19T14:38:14.397Z,11.00
2019-02-19T14:40:44.869Z,10.80
2019-02-19T14:43:15.348Z,10.80
2019-02-19T14:45:45.851Z,10.80
2019-02-19T14:48:14.607Z,10.80
2019-02-19T14:50:45.043Z,10.80
2019-02-19T14:53:15.387Z,10.80
2019-02-19T14:55:45.910Z,10.70
2019-02-19T14:58:16.323Z,10.60
2019-02-19T15:00:46.139Z,10.60
2019-02-19T15:03:15.975Z,10.60
2019-02-19T15:05:48.339Z,10.60
2019-02-19T15:08:33.507Z,10.50
2019-02-19T15:11:06.554Z,10.50
2019-02-19T15:13:36.980Z,10.60
2019-02-19T15:16:10.309Z,10.60
2019-02-19T15:18:40.639Z,10.60
2019-02-19T15:21:13.309Z,10.60
2019-02-19T15:23:43.666Z,10.60
2019-02-19T15:26:12.543Z,10.50
2019-02-19T15:28:42.853Z,10.50
2019-02-19T15:31:13.342Z,10.40
2019-02-19T15:33:43.721Z,10.40
2019-02-19T15:36:14.761Z,10.40
2019-02-19T15:38:45.135Z,10.30
2019-02-19T15:41:15.497Z,10.30
2019-02-19T15:43:45.926Z,10.30
2019-02-19T15:46:17.668Z,10.40
2019-02-19T15:48:48.045Z,10.30
2019-02-19T15:51:18.442Z,10.30
2019-02-19T15:53:49.035Z,10.20
2019-02-19T15:56:19.384Z,10.20
2019-02-19T15:58:49.791Z,10.10
2019-02-19T16:01:20.051Z,10.10
2019-02-19T16:03:54.778Z,10.10
2019-02-19T16:06:25.251Z,10.10
2019-02-19T16:08:55.640Z,10.10
2019-02-19T16:11:25.960Z,10.00
2019-02-19T16:13:56.350Z,10.00
2019-02-19T16:16:28.286Z,9.90
2019-02-19T16:18:58.848Z,9.90
2019-02-19T16:21:30.616Z,9.90
2019-02-19T16:24:01.006Z,9.90
2019-02-19T16:26:31.380Z,9.90
2019-02-19T16:29:03.017Z,9.80
2019-02-19T16:31:34.831Z,9.70
2019-02-19T16:34:04.634Z,9.60
2019-02-19T16:36:34.962Z,9.60
2019-02-19T16:39:06.297Z,9.60
2019-02-19T16:41:36.666Z,9.60
2019-02-19T16:44:07.005Z,9.50
2019-02-19T16:46:37.397Z,9.40
2019-02-19T16:49:09.198Z,9.40
2019-02-19T16:51:39.647Z,9.50
2019-02-19T16:54:26.261Z,9.50
2019-02-19T16:56:56.630Z,9.40
2019-02-19T16:59:28.465Z,9.30
2019-02-19T17:01:58.837Z,9.20
2019-02-19T17:04:31.212Z,9.20
2019-02-19T17:07:01.497Z,9.20
2019-02-19T17:09:33.259Z,9.10
2019-02-19T17:12:03.603Z,9.20
2019-02-19T17:14:33.979Z,9.10
2019-02-19T17:17:04.075Z,9.00
2019-02-19T17:19:34.497Z,9.00
2019-02-19T17:22:04.883Z,9.00
2019-02-19T17:24:35.250Z,9.00
2019-02-19T17:27:05.532Z,9.00
2019-02-19T17:29:35.948Z,9.00
2019-02-19T17:32:06.217Z,9.00
2019-02-19T17:34:36.661Z,9.00
2019-02-19T17:37:08.395Z,9.00
2019-02-19T17:39:38.718Z,8.90
2019-02-19T17:42:07.469Z,8.80
2019-02-19T17:44:37.923Z,8.70
2019-02-19T17:47:08.421Z,8.70
2019-02-19T17:49:38.188Z,8.70
2019-02-19T17:52:08.913Z,8.60
2019-02-19T17:54:39.291Z,8.40
2019-02-19T17:57:12.443Z,8.40
2019-02-19T17:59:42.886Z,8.40
2019-02-19T18:02:13.190Z,8.30
2019-02-19T18:04:43.583Z,8.20
2019-02-19T18:07:13.951Z,8.10
2019-02-19T18:09:47.302Z,8.10
2019-02-19T18:12:17.650Z,8.00
2019-02-19T18:14:48.075Z,7.80
2019-02-19T18:17:18.421Z,7.80
2019-02-19T18:19:47.245Z,7.80
2019-02-19T18:22:17.452Z,7.60
2019-02-19T18:24:46.173Z,7.50
2019-02-19T18:27:15.068Z,7.40
2019-02-19T18:29:43.813Z,7.30
2019-02-19T18:32:14.287Z,7.20
2019-02-19T18:34:43.166Z,7.10
2019-02-19T18:37:11.969Z,6.90
2019-02-19T18:39:40.967Z,6.90
2019-02-19T18:42:09.858Z,6.90
2019-02-19T18:44:40.113Z,6.80
2019-02-19T18:47:08.975Z,6.80
2019-02-19T18:49:37.764Z,6.70
2019-02-19T18:52:06.607Z,6.60
2019-02-19T18:54:35.372Z,6.60
2019-02-19T18:57:04.337Z,6.60
2019-02-19T18:59:34.694Z,6.60
2019-02-19T19:02:03.532Z,6.50
2019-02-19T19:04:32.348Z,6.50
2019-02-19T19:07:02.693Z,6.50
2019-02-19T19:09:31.428Z,6.60
2019-02-19T19:12:00.317Z,6.60
2019-02-19T19:14:29.152Z,6.50
2019-02-19T19:16:58.302Z,6.40
2019-02-19T19:19:27.095Z,6.40
2019-02-19T19:21:55.922Z,6.30
2019-02-19T19:24:24.799Z,6.30
2019-02-19T19:26:54.926Z,6.20
2019-02-19T19:29:23.702Z,6.10
2019-02-19T19:31:55.444Z,6.10
2019-02-19T19:34:24.372Z,5.90
2019-02-19T19:36:53.272Z,5.90
2019-02-19T19:39:23.594Z,5.80
2019-02-19T19:41:53.405Z,5.80
2019-02-19T19:44:22.259Z,5.80
2019-02-19T19:46:51.134Z,5.70
2019-02-19T19:49:31.693Z,5.60
2019-02-19T19:52:01.950Z,5.60
2019-02-19T19:54:31.324Z,5.60
2019-02-19T19:57:00.244Z,5.60
2019-02-19T19:59:30.426Z,5.50
2019-02-19T20:01:59.761Z,5.50
2019-02-19T20:04:28.692Z,5.50
2019-02-19T20:06:57.582Z,5.50
2019-02-19T20:09:26.373Z,5.50
2019-02-19T20:11:55.093Z,5.50
2019-02-19T20:14:23.905Z,5.50
2019-02-19T20:16:52.772Z,5.40
2019-02-19T20:19:21.627Z,5.40
2019-02-19T20:21:50.465Z,5.50
2019-02-19T20:24:22.930Z,5.30
2019-02-19T20:26:55.101Z,5.20
2019-02-19T20:29:23.958Z,5.10
2019-02-19T20:31:54.368Z,5.20
2019-02-19T20:34:23.594Z,5.10
2019-02-19T20:36:55.200Z,5.00
2019-02-19T20:39:23.982Z,4.90
2019-02-19T20:41:53.030Z,4.90
2019-02-19T20:44:21.859Z,4.80
2019-02-19T20:46:52.937Z,4.80
2019-02-19T20:49:25.803Z,4.70
2019-02-19T20:51:54.682Z,4.80
2019-02-19T20:54:23.544Z,4.80
2019-02-19T20:56:52.468Z,4.80
2019-02-19T20:59:23.010Z,4.80
2019-02-19T21:01:52.025Z,4.80
2019-02-19T21:04:20.831Z,4.80
2019-02-19T21:06:49.712Z,4.80
2019-02-19T21:09:18.515Z,4.80
2019-02-19T21:11:47.501Z,4.70
2019-02-19T21:14:16.386Z,4.70
2019-02-19T21:16:45.413Z,4.90
2019-02-19T21:19:14.418Z,5.00
2019-02-19T21:21:45.160Z,5.00
2019-02-19T21:24:13.893Z,5.10
2019-02-19T21:26:47.447Z,5.10
2019-02-19T21:29:16.286Z,5.10
2019-02-19T21:31:45.737Z,5.00
2019-02-19T21:34:15.527Z,5.00
2019-02-19T21:36:44.357Z,5.00
2019-02-19T21:39:13.942Z,5.00
2019-02-19T21:41:42.763Z,5.00
2019-02-19T21:44:11.558Z,5.00
2019-02-19T21:46:41.279Z,5.00
2019-02-19T21:49:10.175Z,5.10
2019-02-19T21:51:38.858Z,5.00
2019-02-19T21:54:07.521Z,5.00
2019-02-19T21:56:36.487Z,5.10
2019-02-19T21:59:05.635Z,5.20
2019-02-19T22:01:34.442Z,5.20
2019-02-19T22:04:04.753Z,5.20
2019-02-19T22:06:33.580Z,5.20
2019-02-19T22:09:02.767Z,5.20
2019-02-19T22:11:33.063Z,5.20
2019-02-19T22:14:02.078Z,5.20
2019-02-19T22:16:33.853Z,5.30
2019-02-19T22:19:04.277Z,5.30
2019-02-19T22:21:37.310Z,5.40
2019-02-19T22:24:06.047Z,5.30
2019-02-19T22:26:38.397Z,5.30
2019-02-19T22:29:07.124Z,5.30
2019-02-19T22:31:36.032Z,5.30
2019-02-19T22:34:04.866Z,5.30
2019-02-19T22:36:33.585Z,5.20
2019-02-19T22:39:02.649Z,5.20
2019-02-19T22:41:31.439Z,5.30
2019-02-19T22:44:01.863Z,5.20
2019-02-19T22:46:35.188Z,5.30
2019-02-19T22:49:11.454Z,5.30
2019-02-19T22:51:45.343Z,5.30
2019-02-19T22:54:15.625Z,5.30
2019-02-19T22:56:44.453Z,5.20
2019-02-19T23:02:03.077Z,5.20
2019-02-19T23:04:39.060Z,5.20
2019-02-19T23:07:12.532Z,5.20
2019-02-19T23:09:41.353Z,5.30
2019-02-19T23:12:11.390Z,5.30
2019-02-19T23:14:44.934Z,5.30
2019-02-19T23:17:10.989Z,5.30
2019-02-19T23:19:39.748Z,5.20
2019-02-19T23:22:09.096Z,5.20
2019-02-19T23:24:37.744Z,5.10
2019-02-19T23:27:08.527Z,5.20
2019-02-19T23:29:36.942Z,5.30
2019-02-19T23:32:05.784Z,5.20
2019-02-19T23:34:34.453Z,5.20
2019-02-19T23:37:03.583Z,5.20
2019-02-19T23:39:32.324Z,5.20
2019-02-19T23:42:01.090Z,5.20
2019-02-19T23:44:29.888Z,5.30
2019-02-19T23:46:58.721Z,5.40
2019-02-19T23:49:27.525Z,5.40
2019-02-19T23:51:56.302Z,5.40
2019-02-19T23:54:25.137Z,5.40
2019-02-19T23:56:53.915Z,5.30
2019-02-19T23:59:22.688Z,5.20
